F/V Gwel A Vo — FHIJ — position and weather

sailwx.info

Track history (hours):
 
Tides and Currents Weather Stations Pressure Air Temp Water Temp Dewpoint Dewpoint Depression Visibility Wind Speed Wind Dir Waves Ship Positions

F/V Gwel A Vo

Last reported at 2017-Sep-19 08:47 UTC. Time now 2017-Sep-24 21:17 UTC.
Position N 48°07' W 004°56'.

Length 25 m.

Type: Fishing. MMSI: 228131000.

Date/timePositionNaut miles runAvg speedWind from/ knotsBaromVisibWave heightAir tempDewpointWater temp
2017-Sep-19 08:47N 48°07' W 004°56'3 9.9
2017-Sep-19 08:29N 48°05' W 004°52'5 9.8
2017-Sep-19 08:00N 48°03' W 004°47'  
2017-Sep-14 06:38N 47°49' W 004°23'1 0.0
2017-Sep-13 05:58N 47°49' W 004°24'8 9.8
2017-Sep-13 05:10N 47°54' W 004°33'210.0
2017-Sep-13 05:00N 47°55' W 004°35'5 9.7
2017-Sep-13 04:30N 47°58' W 004°40'4 8.0
2017-Sep-13 04:00N 48°01' W 004°45'4 7.3
2017-Sep-13 03:31N 48°03' W 004°49'4 9.0
2017-Sep-13 03:00N 48°06' W 004°54'5 9.2
2017-Sep-13 02:30N 48°10' W 004°59'5 9.6
2017-Sep-13 02:00N 48°13' W 005°03'1110.3
2017-Sep-13 00:58N 48°21' W 005°14'217 9.5
2017-Sep-12 02:04N 51°31' W 007°59'1 7.6
2017-Sep-12 01:56N 51°32' W 007°60'3 7.0
2017-Sep-12 01:30N 51°34' W 008°02'1 1.8
2017-Sep-12 01:00N 51°34' W 008°04'1 3.0
2017-Sep-12 00:30N 51°34' W 008°06'2 3.0
2017-Sep-12 00:00N 51°33' W 008°08'1 2.4
2017-Sep-11 23:30N 51°32' W 008°07'2 3.2
2017-Sep-11 23:01N 51°32' W 008°05'2 3.1
2017-Sep-11 22:30N 51°32' W 008°02'2 3.2
2017-Sep-11 22:00N 51°33' W 008°00'2 3.0
2017-Sep-11 21:30N 51°33' W 007°58'1 2.8
2017-Sep-11 21:00N 51°34' W 007°56'1 2.7
2017-Sep-11 20:30N 51°35' W 007°54'1 2.7
2017-Sep-11 20:00N 51°35' W 007°52'1 2.7
2017-Sep-11 19:30N 51°35' W 007°50'0 0.2
2017-Sep-11 18:56N 51°35' W 007°50'1 2.9
2017-Sep-11 18:30N 51°35' W 007°52'2 3.3
2017-Sep-11 18:01N 51°34' W 007°54'2 3.2
2017-Sep-11 17:28N 51°34' W 007°57'2 3.4
2017-Sep-11 16:54N 51°33' W 007°60'1 3.3
2017-Sep-11 16:30N 51°32' W 008°01'2 3.3
2017-Sep-11 16:00N 51°32' W 008°04'2 3.3
2017-Sep-11 15:30N 51°32' W 008°07'2 3.3
2017-Sep-11 15:00N 51°31' W 008°09'2 3.1
2017-Sep-11 14:30N 51°31' W 008°11'1 1.9
2017-Sep-11 14:00N 51°30' W 008°10'1 2.6
2017-Sep-11 13:30N 51°30' W 008°08'2 3.2
2017-Sep-11 13:00N 51°30' W 008°06'2 3.2
2017-Sep-11 12:30N 51°31' W 008°04'2 3.1
2017-Sep-11 12:00N 51°31' W 008°01'2 3.1
2017-Sep-11 11:30N 51°32' W 007°59'1 2.9
2017-Sep-11 11:00N 51°33' W 007°58'2 3.3
2017-Sep-11 10:30N 51°35' W 007°58'2 3.2
2017-Sep-11 10:00N 51°36' W 007°59'2 3.1
2017-Sep-11 09:30N 51°37' W 008°01'2 3.4
2017-Sep-11 09:01N 51°38' W 008°03'1 2.2
2017-Sep-11 08:30N 51°38' W 008°05'2 3.2
2017-Sep-11 08:00N 51°37' W 008°07'2 3.3
2017-Sep-11 07:30N 51°36' W 008°09'2 3.2
2017-Sep-11 07:00N 51°35' W 008°11'2 3.3
2017-Sep-11 06:30N 51°35' W 008°14'2 3.6
2017-Sep-11 05:57N 51°34' W 008°16'2 3.5
2017-Sep-11 05:30N 51°33' W 008°18'1 1.8
2017-Sep-11 05:01N 51°32' W 008°19'3 5.3
2017-Sep-11 04:30N 51°30' W 008°17'2 3.0
2017-Sep-11 03:56N 51°28' W 008°18'3 4.3
2017-Sep-11 03:21N 51°30' W 008°21'1 2.5
2017-Sep-11 02:58N 51°31' W 008°22'1 2.4
2017-Sep-11 02:30N 51°31' W 008°20'1 2.5
2017-Sep-11 02:00N 51°32' W 008°19'1 2.4
2017-Sep-11 01:30N 51°33' W 008°17'1 2.4
2017-Sep-11 01:00N 51°34' W 008°15'1 2.4
2017-Sep-11 00:30N 51°34' W 008°14'1 2.4
2017-Sep-11 00:00N 51°35' W 008°12'1 2.3
2017-Sep-10 23:30N 51°36' W 008°11'1 1.6
2017-Sep-10 23:00N 51°36' W 008°09'1 2.3
2017-Sep-10 22:30N 51°37' W 008°08'2 3.0
2017-Sep-10 22:00N 51°38' W 008°06'1 3.0
2017-Sep-10 21:30N 51°38' W 008°04'1 2.9
2017-Sep-10 21:00N 51°40' W 008°03'1 2.8
2017-Sep-10 20:30N 51°41' W 008°02'1 2.7
2017-Sep-10 20:00N 51°41' W 007°60'0 0.5
2017-Sep-10 19:30N 51°41' W 007°59'2 3.7
2017-Sep-10 19:00N 51°40' W 008°02'1 1.4
2017-Sep-10 18:30N 51°40' W 008°02'1 2.6
2017-Sep-10 18:00N 51°40' W 008°00'1 2.6
2017-Sep-10 17:30N 51°40' W 007°58'1 2.6
2017-Sep-10 17:00N 51°41' W 007°56'1 2.7
2017-Sep-10 16:30N 51°41' W 007°54'1 2.7
2017-Sep-10 16:00N 51°42' W 007°56'2 3.5
2017-Sep-10 15:30N 51°41' W 007°59'2 3.4
2017-Sep-10 15:00N 51°41' W 008°02'2 2.0
2017-Sep-10 14:00N 51°39' W 008°04'1 3.0
2017-Sep-10 13:30N 51°40' W 008°02'2 3.1
2017-Sep-10 13:00N 51°40' W 007°59'2 3.1
2017-Sep-10 12:30N 51°41' W 007°57'2 3.2
2017-Sep-10 12:00N 51°41' W 007°55'2 3.1
2017-Sep-10 11:30N 51°42' W 007°52'2 3.1
2017-Sep-10 11:00N 51°42' W 007°50'2 3.1
2017-Sep-10 10:30N 51°42' W 007°48'2 3.2
2017-Sep-10 10:01N 51°41' W 007°45'1 2.1
2017-Sep-10 09:25N 51°41' W 007°43'2 3.1
2017-Sep-10 08:46N 51°39' W 007°42'1 2.4
2017-Sep-10 08:30N 51°39' W 007°43'1 2.9
2017-Sep-10 08:00N 51°41' W 007°43'1 3.0
2017-Sep-10 07:30N 51°42' W 007°45'1 2.8
2017-Sep-10 07:00N 51°43' W 007°45'2 3.2
2017-Sep-10 06:30N 51°45' W 007°46'1 2.7
2017-Sep-10 06:00N 51°46' W 007°47'2 3.0
2017-Sep-10 05:30N 51°47' W 007°45'9 0.7
2017-Sep-09 15:43N 51°38' W 007°38'1 2.8
2017-Sep-09 15:28N 51°39' W 007°37'2 3.3
2017-Sep-09 15:00N 51°40' W 007°37'2 2.8
2017-Sep-09 14:18N 51°39' W 007°40'0 1.0
2017-Sep-09 14:00N 51°39' W 007°39'3 2.6
2017-Sep-09 12:42N 51°36' W 007°42'1 2.3
2017-Sep-09 12:28N 51°37' W 007°41'1 3.2
2017-Sep-09 12:00N 51°38' W 007°42'2 3.1
2017-Sep-09 11:30N 51°40' W 007°43'1 3.0
2017-Sep-09 11:00N 51°41' W 007°44'2 3.1
2017-Sep-09 10:30N 51°42' W 007°47'2 3.1
2017-Sep-09 10:00N 51°42' W 007°49'1 2.1
2017-Sep-09 09:30N 51°42' W 007°51'1 1.9
2017-Sep-09 09:00N 51°42' W 007°52'  
Track history (hours):
 
Tides and Currents Weather Stations Pressure Air Temp Water Temp Dewpoint Dewpoint Depression Visibility Wind Speed Wind Dir Waves Ship Positions

F/V Gwel A Vo

Last reported at 2017-Sep-19 08:47 UTC. Time now 2017-Sep-24 21:17 UTC.
Position N 48°07' W 004°56'.

Length 25 m.

Type: Fishing. MMSI: 228131000.

Date/timePositionNaut miles runAvg speedWind from/ knotsBaromVisibWave heightAir tempDewpointWater temp
2017-Sep-19 08:47N 48°07' W 004°56'3 9.9
2017-Sep-19 08:29N 48°05' W 004°52'5 9.8
2017-Sep-19 08:00N 48°03' W 004°47'  
2017-Sep-14 06:38N 47°49' W 004°23'1 0.0
2017-Sep-13 05:58N 47°49' W 004°24'8 9.8
2017-Sep-13 05:10N 47°54' W 004°33'210.0
2017-Sep-13 05:00N 47°55' W 004°35'5 9.7
2017-Sep-13 04:30N 47°58' W 004°40'4 8.0
2017-Sep-13 04:00N 48°01' W 004°45'4 7.3
2017-Sep-13 03:31N 48°03' W 004°49'4 9.0
2017-Sep-13 03:00N 48°06' W 004°54'5 9.2
2017-Sep-13 02:30N 48°10' W 004°59'5 9.6
2017-Sep-13 02:00N 48°13' W 005°03'1110.3
2017-Sep-13 00:58N 48°21' W 005°14'217 9.5
2017-Sep-12 02:04N 51°31' W 007°59'1 7.6
2017-Sep-12 01:56N 51°32' W 007°60'3 7.0
2017-Sep-12 01:30N 51°34' W 008°02'1 1.8
2017-Sep-12 01:00N 51°34' W 008°04'1 3.0
2017-Sep-12 00:30N 51°34' W 008°06'2 3.0
2017-Sep-12 00:00N 51°33' W 008°08'1 2.4
2017-Sep-11 23:30N 51°32' W 008°07'2 3.2
2017-Sep-11 23:01N 51°32' W 008°05'2 3.1
2017-Sep-11 22:30N 51°32' W 008°02'2 3.2
2017-Sep-11 22:00N 51°33' W 008°00'2 3.0
2017-Sep-11 21:30N 51°33' W 007°58'1 2.8
2017-Sep-11 21:00N 51°34' W 007°56'1 2.7
2017-Sep-11 20:30N 51°35' W 007°54'1 2.7
2017-Sep-11 20:00N 51°35' W 007°52'1 2.7
2017-Sep-11 19:30N 51°35' W 007°50'0 0.2
2017-Sep-11 18:56N 51°35' W 007°50'1 2.9
2017-Sep-11 18:30N 51°35' W 007°52'2 3.3
2017-Sep-11 18:01N 51°34' W 007°54'2 3.2
2017-Sep-11 17:28N 51°34' W 007°57'2 3.4
2017-Sep-11 16:54N 51°33' W 007°60'1 3.3
2017-Sep-11 16:30N 51°32' W 008°01'2 3.3
2017-Sep-11 16:00N 51°32' W 008°04'2 3.3
2017-Sep-11 15:30N 51°32' W 008°07'2 3.3
2017-Sep-11 15:00N 51°31' W 008°09'2 3.1
2017-Sep-11 14:30N 51°31' W 008°11'1 1.9
2017-Sep-11 14:00N 51°30' W 008°10'1 2.6
2017-Sep-11 13:30N 51°30' W 008°08'2 3.2
2017-Sep-11 13:00N 51°30' W 008°06'2 3.2
2017-Sep-11 12:30N 51°31' W 008°04'2 3.1
2017-Sep-11 12:00N 51°31' W 008°01'2 3.1
2017-Sep-11 11:30N 51°32' W 007°59'1 2.9
2017-Sep-11 11:00N 51°33' W 007°58'2 3.3
2017-Sep-11 10:30N 51°35' W 007°58'2 3.2
2017-Sep-11 10:00N 51°36' W 007°59'2 3.1
2017-Sep-11 09:30N 51°37' W 008°01'2 3.4
2017-Sep-11 09:01N 51°38' W 008°03'1 2.2
2017-Sep-11 08:30N 51°38' W 008°05'2 3.2
2017-Sep-11 08:00N 51°37' W 008°07'2 3.3
2017-Sep-11 07:30N 51°36' W 008°09'2 3.2
2017-Sep-11 07:00N 51°35' W 008°11'2 3.3
2017-Sep-11 06:30N 51°35' W 008°14'2 3.6
2017-Sep-11 05:57N 51°34' W 008°16'2 3.5
2017-Sep-11 05:30N 51°33' W 008°18'1 1.8
2017-Sep-11 05:01N 51°32' W 008°19'3 5.3
2017-Sep-11 04:30N 51°30' W 008°17'2 3.0
2017-Sep-11 03:56N 51°28' W 008°18'3 4.3
2017-Sep-11 03:21N 51°30' W 008°21'1 2.5
2017-Sep-11 02:58N 51°31' W 008°22'1 2.4
2017-Sep-11 02:30N 51°31' W 008°20'1 2.5
2017-Sep-11 02:00N 51°32' W 008°19'1 2.4
2017-Sep-11 01:30N 51°33' W 008°17'1 2.4
2017-Sep-11 01:00N 51°34' W 008°15'1 2.4
2017-Sep-11 00:30N 51°34' W 008°14'1 2.4
2017-Sep-11 00:00N 51°35' W 008°12'1 2.3
2017-Sep-10 23:30N 51°36' W 008°11'1 1.6
2017-Sep-10 23:00N 51°36' W 008°09'1 2.3
2017-Sep-10 22:30N 51°37' W 008°08'2 3.0
2017-Sep-10 22:00N 51°38' W 008°06'1 3.0
2017-Sep-10 21:30N 51°38' W 008°04'1 2.9
2017-Sep-10 21:00N 51°40' W 008°03'1 2.8
2017-Sep-10 20:30N 51°41' W 008°02'1 2.7
2017-Sep-10 20:00N 51°41' W 007°60'0 0.5
2017-Sep-10 19:30N 51°41' W 007°59'2 3.7
2017-Sep-10 19:00N 51°40' W 008°02'1 1.4
2017-Sep-10 18:30N 51°40' W 008°02'1 2.6
2017-Sep-10 18:00N 51°40' W 008°00'1 2.6
2017-Sep-10 17:30N 51°40' W 007°58'1 2.6
2017-Sep-10 17:00N 51°41' W 007°56'1 2.7
2017-Sep-10 16:30N 51°41' W 007°54'1 2.7
2017-Sep-10 16:00N 51°42' W 007°56'2 3.5
2017-Sep-10 15:30N 51°41' W 007°59'2 3.4
2017-Sep-10 15:00N 51°41' W 008°02'2 2.0
2017-Sep-10 14:00N 51°39' W 008°04'1 3.0
2017-Sep-10 13:30N 51°40' W 008°02'2 3.1
2017-Sep-10 13:00N 51°40' W 007°59'2 3.1
2017-Sep-10 12:30N 51°41' W 007°57'2 3.2
2017-Sep-10 12:00N 51°41' W 007°55'2 3.1
2017-Sep-10 11:30N 51°42' W 007°52'2 3.1
2017-Sep-10 11:00N 51°42' W 007°50'2 3.1
2017-Sep-10 10:30N 51°42' W 007°48'2 3.2
2017-Sep-10 10:01N 51°41' W 007°45'1 2.1
2017-Sep-10 09:25N 51°41' W 007°43'2 3.1
2017-Sep-10 08:46N 51°39' W 007°42'1 2.4
2017-Sep-10 08:30N 51°39' W 007°43'1 2.9
2017-Sep-10 08:00N 51°41' W 007°43'1 3.0
2017-Sep-10 07:30N 51°42' W 007°45'1 2.8
2017-Sep-10 07:00N 51°43' W 007°45'2 3.2
2017-Sep-10 06:30N 51°45' W 007°46'1 2.7
2017-Sep-10 06:00N 51°46' W 007°47'2 3.0
2017-Sep-10 05:30N 51°47' W 007°45'9 0.7
2017-Sep-09 15:43N 51°38' W 007°38'1 2.8
2017-Sep-09 15:28N 51°39' W 007°37'2 3.3
2017-Sep-09 15:00N 51°40' W 007°37'2 2.8
2017-Sep-09 14:18N 51°39' W 007°40'0 1.0
2017-Sep-09 14:00N 51°39' W 007°39'3 2.6
2017-Sep-09 12:42N 51°36' W 007°42'1 2.3
2017-Sep-09 12:28N 51°37' W 007°41'1 3.2
2017-Sep-09 12:00N 51°38' W 007°42'2 3.1
2017-Sep-09 11:30N 51°40' W 007°43'1 3.0
2017-Sep-09 11:00N 51°41' W 007°44'2 3.1
2017-Sep-09 10:30N 51°42' W 007°47'2 3.1
2017-Sep-09 10:00N 51°42' W 007°49'1 2.1
2017-Sep-09 09:30N 51°42' W 007°51'1 1.9
2017-Sep-09 09:00N 51°42' W 007°52'  

Dump ship's entire track history